Terminal Aerodrome Forecast
Issued by NWS Sioux Falls, SD

Home | Current Version | Previous Version | Graphics & Text | Print | Product List | Glossary Off
Versions: 1 2 3 4 5 6 7 8 9 10 11 12 13 14 15 16 17 18

000
FTUS43 KFSD 301742
TAFSUX
TAF
KSUX 301742Z 3018/3118 33016G23KT P6SM FEW035
     FM302000 34018G25KT P6SM SCT020 BKN040
     FM310000 34016G23KT P6SM BKN015
     FM311000 35010KT P6SM SCT015
     FM311500 03010KT P6SM SKC=

USA.gov is the U.S. government's official web portal to all federal, state and local government web resources and services.